Time;durP1;ratioP1;P1;durP2;ratioP2;P2;SDS_P1;SDS_P2;PMS_P1;PMS_P2;Temp;Humidity;BMP_temperature;BMP_pressure;BME280_temperature;BME280_humidity;BME280_pressure;Samples;Min_cycle;Max_cycle;Signal;HPM_P1;HPM_P2
2021/03/14 00:00:51;;;;;;;1.23;0.30;;;6.40;70.00;;;4.79;69.21;94822.91;4933708;29;20039;-70
2021/03/14 00:03:19;;;;;;;4.28;0.50;;;6.30;69.40;;;4.78;69.39;94834.31;4914909;28;20139;-69
2021/03/14 00:05:47;;;;;;;3.88;0.47;;;6.30;69.40;;;4.79;68.82;94835.91;4930411;28;20046;-69
2021/03/14 00:08:13;;;;;;;1.38;0.55;;;6.30;69.80;;;4.79;69.24;94838.53;4933175;29;20042;-68
2021/03/14 00:10:41;;;;;;;2.20;0.50;;;6.30;69.30;;;4.80;69.42;94847.94;4918396;29;20027;-68
2021/03/14 00:13:07;;;;;;;4.50;0.40;;;6.30;71.20;;;4.78;70.08;94854.34;4899886;29;20139;-68
2021/03/14 00:15:33;;;;;;;2.25;0.60;;;6.10;72.60;;;4.73;70.05;94852.25;4934926;29;20032;-70
2021/03/14 00:17:59;;;;;;;1.13;0.40;;;6.10;73.00;;;4.69;70.33;94843.19;4917298;29;20044;-73
2021/03/14 00:20:24;;;;;;;0.88;0.25;;;6.10;73.90;;;4.63;70.14;94846.53;4907620;29;20028;-73
2021/03/14 00:22:50;;;;;;;3.97;0.70;;;6.10;74.20;;;4.58;70.70;94849.69;4917862;29;20062;-74
2021/03/14 00:25:16;;;;;;;1.55;0.50;;;6.00;74.00;;;4.55;70.43;94850.06;4901654;29;20048;-73
2021/03/14 00:27:44;;;;;;;1.92;0.65;;;6.00;74.20;;;4.53;70.56;94848.66;4916176;29;20039;-73
2021/03/14 00:30:12;;;;;;;1.15;0.50;;;5.90;74.40;;;4.51;71.51;94845.38;4899316;29;20035;-72
2021/03/14 00:32:38;;;;;;;1.52;0.50;;;6.00;74.20;;;4.50;70.90;94852.38;4923251;29;20101;-72
2021/03/14 00:35:06;;;;;;;1.33;0.35;;;6.10;73.80;;;4.49;70.97;94844.75;4928010;28;20506;-73
2021/03/14 00:37:31;;;;;;;1.25;0.60;;;6.00;74.00;;;4.49;70.87;94847.38;4944518;28;20035;-72
2021/03/14 00:39:57;;;;;;;2.70;0.40;;;6.10;74.40;;;4.50;71.07;94848.97;4930140;29;20032;-72
2021/03/14 00:42:23;;;;;;;3.47;0.65;;;6.10;74.40;;;4.50;71.25;94857.59;4917244;28;20040;-72
2021/03/14 00:44:48;;;;;;;1.88;0.40;;;6.10;74.70;;;4.50;71.34;94857.59;4885407;29;20690;-74
2021/03/14 00:47:14;;;;;;;2.42;0.43;;;6.10;74.60;;;4.49;71.17;94860.38;4914420;29;20508;-73
2021/03/14 00:49:40;;;;;;;1.17;0.50;;;6.00;74.90;;;4.48;71.30;94864.78;4914858;29;20055;-73
2021/03/14 00:52:06;;;;;;;4.75;0.70;;;6.10;75.40;;;4.48;71.95;94864.78;4914192;29;20562;-73
2021/03/14 00:54:33;;;;;;;2.25;0.60;;;6.00;75.40;;;4.46;72.46;94860.75;4912902;29;20028;-73
2021/03/14 00:56:59;;;;;;;3.00;0.40;;;6.00;75.60;;;4.44;72.05;94863.53;4902725;29;20040;-73
2021/03/14 00:59:25;;;;;;;1.27;0.45;;;6.00;75.90;;;4.45;72.30;94870.34;4900492;29;20147;-73
2021/03/14 01:01:51;;;;;;;3.65;0.80;;;6.00;76.00;;;4.45;72.17;94864.34;4912598;29;20110;-72
2021/03/14 01:04:16;;;;;;;1.48;0.30;;;6.00;75.80;;;4.44;72.49;94862.72;4915697;29;20031;-72
2021/03/14 01:06:42;;;;;;;1.00;0.40;;;6.00;75.70;;;4.38;72.79;94860.88;4901858;29;20428;-73
2021/03/14 01:09:08;;;;;;;2.15;0.60;;;5.90;76.60;;;4.33;72.82;94873.63;4916959;29;20511;-73
2021/03/14 01:11:33;;;;;;;1.05;0.30;;;5.90;76.90;;;4.26;72.81;94861.31;4931186;28;20066;-73
2021/03/14 01:13:59;;;;;;;2.97;0.47;;;5.70;76.90;;;4.22;72.76;94874.84;4916355;29;20051;-73
2021/03/14 01:16:25;;;;;;;1.90;0.60;;;5.60;77.10;;;4.15;72.62;94869.56;4909027;29;20066;-73
2021/03/14 01:18:51;;;;;;;1.20;0.20;;;5.60;77.30;;;4.12;73.03;94874.34;4914261;29;20044;-73
2021/03/14 01:21:17;;;;;;;2.17;0.40;;;5.60;77.30;;;4.08;72.96;94873.88;4932999;29;20129;-72
2021/03/14 01:23:42;;;;;;;1.55;0.30;;;5.50;77.20;;;4.04;73.49;94875.22;4917178;29;20122;-72
2021/03/14 01:26:08;;;;;;;1.35;0.45;;;5.50;77.80;;;4.02;73.06;94871.16;4900681;29;20098;-72
2021/03/14 01:28:34;;;;;;;1.92;0.30;;;5.50;78.10;;;3.97;73.24;94882.13;4932751;29;20078;-73
2021/03/14 01:31:00;;;;;;;1.20;0.30;;;5.40;78.40;;;3.89;74.10;94877.81;4907556;28;20503;-72
2021/03/14 01:33:26;;;;;;;8.48;3.53;;;5.30;79.40;;;3.85;74.11;94870.56;4929521;29;20039;-72
2021/03/14 01:35:52;;;;;;;4.43;0.73;;;5.40;79.00;;;3.79;74.23;94879.03;4932747;28;20070;-72
2021/03/14 01:38:18;;;;;;;1.38;0.47;;;5.20;79.30;;;3.75;74.31;94867.38;4891463;29;20055;-73
2021/03/14 01:40:43;;;;;;;1.40;0.63;;;5.10;79.10;;;3.68;74.56;94868.09;4930124;28;20719;-73
2021/03/14 01:43:09;;;;;;;1.27;0.75;;;5.10;79.30;;;3.62;74.18;94865.38;4921021;29;20520;-73
2021/03/14 01:45:35;;;;;;;0.82;0.20;;;5.10;79.30;;;3.59;74.17;94843.13;4933093;29;20126;-72
2021/03/14 01:48:02;;;;;;;0.28;0.10;;;5.10;79.30;;;3.54;74.68;94834.25;4916003;28;20118;-73
2021/03/14 01:50:30;;;;;;;1.02;0.30;;;5.10;78.90;;;3.48;74.92;94846.19;4922294;28;20035;-73
2021/03/14 01:52:56;;;;;;;0.68;0.20;;;5.00;79.30;;;3.43;74.73;94843.31;4915568;28;20048;-71
2021/03/14 01:55:22;;;;;;;0.20;0.10;;;4.90;79.40;;;3.39;74.46;94829.00;4921927;29;20427;-72
2021/03/14 01:57:48;;;;;;;0.32;0.20;;;4.90;79.30;;;3.35;74.88;94831.16;4896893;29;20042;-71
2021/03/14 02:00:16;;;;;;;0.57;0.28;;;4.90;79.80;;;3.29;75.19;94820.66;4915436;28;20518;-72
2021/03/14 02:02:43;;;;;;;1.27;0.15;;;4.70;80.00;;;3.27;75.51;94830.44;4929676;29;20087;-72
2021/03/14 02:05:10;;;;;;;0.50;0.30;;;4.80;79.70;;;3.22;75.12;94830.16;4913305;28;20484;-72
2021/03/14 02:07:37;;;;;;;0.30;0.20;;;4.70;79.90;;;3.19;75.55;94835.72;4916117;29;20082;-73
2021/03/14 02:10:04;;;;;;;0.47;0.22;;;4.80;80.10;;;3.19;75.48;94840.91;4916925;28;20460;-73
2021/03/14 02:12:32;;;;;;;1.77;0.20;;;4.70;80.00;;;3.15;75.43;94839.59;4936266;28;20034;-72
2021/03/14 02:14:59;;;;;;;2.92;0.20;;;4.70;80.10;;;3.13;75.57;94849.38;4916601;29;20576;-72
2021/03/14 02:17:29;;;;;;;0.35;0.20;;;4.70;80.00;;;3.08;75.86;94849.91;4926402;29;20150;-73
2021/03/14 02:20:24;;;;;;;1.10;0.30;;;4.60;80.50;;;3.09;77.65;94846.31;4929728;28;20028;-73
2021/03/14 02:22:57;;;;;;;2.35;0.40;;;4.70;80.10;;;3.05;76.33;94850.25;4923070;29;20106;-73
2021/03/14 02:25:28;;;;;;;1.80;0.30;;;4.60;80.10;;;3.02;76.61;94851.41;4933978;28;20039;-74
2021/03/14 02:27:53;;;;;;;1.45;0.15;;;4.60;79.90;;;3.01;75.58;94854.19;4932135;29;20040;-73
2021/03/14 02:30:20;;;;;;;0.20;0.20;;;4.60;79.90;;;2.99;75.49;94867.34;4930205;29;20058;-73
2021/03/14 02:32:46;;;;;;;1.38;0.10;;;4.60;79.70;;;2.98;75.39;94865.72;4897835;29;20032;-73
2021/03/14 02:35:12;;;;;;;0.17;0.10;;;4.60;79.20;;;2.98;75.20;94862.31;4921894;29;20130;-73
2021/03/14 02:37:38;;;;;;;0.52;0.20;;;4.60;79.50;;;2.98;75.49;94868.31;4897325;29;20054;-73
2021/03/14 02:40:05;;;;;;;0.77;0.20;;;4.60;79.50;;;2.98;75.57;94878.72;4931584;28;20126;-73
2021/03/14 02:42:31;;;;;;;0.40;0.20;;;4.60;79.60;;;2.97;75.83;94873.69;4916476;29;20027;-73
2021/03/14 02:44:57;;;;;;;0.10;0.10;;;4.50;79.10;;;2.96;75.91;94877.25;4916352;29;20027;-73
2021/03/14 02:47:24;;;;;;;1.42;0.30;;;4.60;79.50;;;2.92;75.68;94869.00;4895268;29;20032;-73
2021/03/14 02:49:50;;;;;;;0.50;0.20;;;4.50;79.10;;;2.90;75.47;94873.53;4914843;29;20410;-73
2021/03/14 02:52:17;;;;;;;0.55;0.28;;;4.40;79.40;;;2.88;75.44;94875.50;4911189;29;20200;-73
2021/03/14 02:54:43;;;;;;;0.38;0.10;;;4.50;79.50;;;2.88;75.44;94875.50;4915883;29;20034;-73
2021/03/14 02:57:08;;;;;;;0.93;0.20;;;4.50;79.20;;;2.87;75.72;94881.69;4916194;29;20352;-72
2021/03/14 02:59:34;;;;;;;0.20;0.10;;;4.50;79.20;;;2.87;75.71;94891.25;4917032;29;20051;-73
2021/03/14 03:02:00;;;;;;;1.27;0.30;;;4.40;79.30;;;2.85;75.51;94896.63;4931819;28;20069;-72
2021/03/14 03:04:26;;;;;;;1.13;0.10;;;4.40;79.50;;;2.84;75.54;94899.41;4928971;29;20083;-72
2021/03/14 03:06:54;;;;;;;0.30;0.10;;;4.50;79.50;;;2.82;75.96;94891.78;4929610;28;20038;-72
2021/03/14 03:09:20;;;;;;;0.20;0.10;;;4.40;79.60;;;2.81;75.70;94894.56;4926965;29;20039;-73
2021/03/14 03:11:51;;;;;;;0.85;0.10;;;4.40;79.20;;;2.78;76.15;94887.91;4900374;29;20463;-72
2021/03/14 03:14:18;;;;;;;0.10;0.10;;;4.30;79.60;;;2.80;75.60;94877.34;4901863;29;20459;-72
2021/03/14 03:16:47;;;;;;;0.10;0.10;;;4.40;79.30;;;2.81;76.09;94895.34;4928382;29;20044;-73
2021/03/14 03:19:14;;;;;;;0.30;0.20;;;4.40;79.20;;;2.81;75.77;94884.97;4919148;29;20079;-72
2021/03/14 03:21:41;;;;;;;0.43;0.15;;;4.40;79.20;;;2.82;76.05;94881.41;4935010;29;20043;-73
2021/03/14 03:24:07;;;;;;;0.63;0.20;;;4.40;79.30;;;2.82;75.80;94891.78;4903521;29;20031;-73
2021/03/14 03:26:33;;;;;;;0.10;0.10;;;4.40;79.30;;;2.82;76.33;94894.38;4931713;29;20039;-72
2021/03/14 03:28:59;;;;;;;0.13;0.10;;;4.40;79.20;;;2.82;75.50;94903.97;4933631;29;20143;-72
2021/03/14 03:31:24;;;;;;;0.57;0.10;;;4.30;79.40;;;2.82;76.00;94896.16;4903542;29;20396;-73
2021/03/14 03:33:50;;;;;;;0.95;0.22;;;4.40;79.30;;;2.83;76.31;94906.38;4934273;28;20539;-73
2021/03/14 03:36:16;;;;;;;0.47;0.20;;;4.50;79.30;;;2.83;76.25;94908.97;4908033;29;20099;-72
2021/03/14 03:38:42;;;;;;;1.70;0.30;;;4.50;79.10;;;2.81;76.00;94905.75;4932063;29;20533;-73
2021/03/14 03:41:07;;;;;;;0.30;0.20;;;4.40;79.30;;;2.82;76.18;94911.75;4919220;29;20514;-73
2021/03/14 03:43:37;;;;;;;0.20;0.20;;;4.40;79.60;;;2.80;76.98;94921.50;4931106;29;20054;-74
2021/03/14 03:46:06;;;;;;;0.93;0.22;;;4.30;79.70;;;2.80;76.11;94929.28;4915236;29;20062;-73
2021/03/14 03:48:47;;;;;;;0.60;0.10;;;4.40;79.60;;;2.78;76.81;94926.84;4915177;29;20032;-72
2021/03/14 03:51:15;;;;;;;0.57;0.20;;;4.30;79.50;;;2.79;76.34;94938.06;4900522;29;20522;-72
2021/03/14 03:53:41;;;;;;;0.50;0.25;;;4.40;79.80;;;2.79;76.15;94933.66;4915908;29;20101;-72
2021/03/14 03:56:07;;;;;;;0.28;0.13;;;4.40;79.70;;;2.80;76.23;94940.47;4930522;29;20039;-71
2021/03/14 03:58:33;;;;;;;0.40;0.20;;;4.40;79.60;;;2.81;75.92;94947.28;4934330;28;20053;-72
2021/03/14 04:00:59;;;;;;;0.63;0.15;;;4.40;79.20;;;2.80;75.98;94945.66;4938618;29;20455;-71
2021/03/14 04:03:25;;;;;;;0.68;0.20;;;4.40;79.80;;;2.80;76.03;94942.28;4934605;29;20035;-72
2021/03/14 04:05:55;;;;;;;0.90;0.20;;;4.30;79.90;;;2.79;77.35;94951.84;4933145;28;20475;-72
2021/03/14 04:08:21;;;;;;;0.30;0.20;;;4.30;80.40;;;2.78;76.53;94949.41;4918081;29;20410;-71
2021/03/14 04:10:47;;;;;;;0.10;0.10;;;4.30;80.10;;;2.77;76.52;94948.63;4915073;29;20047;-72
2021/03/14 04:13:13;;;;;;;0.20;0.15;;;4.40;80.20;;;2.78;76.36;94957.22;4915134;29;20504;-72
2021/03/14 04:15:39;;;;;;;0.68;0.20;;;4.30;80.40;;;2.79;76.28;94975.22;4925255;29;20114;-72
2021/03/14 04:18:05;;;;;;;0.40;0.20;;;4.40;79.90;;;2.76;76.57;94972.97;4913928;29;20044;-73
2021/03/14 04:20:36;;;;;;;0.35;0.13;;;4.20;80.50;;;2.72;77.92;94990.66;4899488;29;20035;-73
2021/03/14 04:23:15;;;;;;;0.43;0.20;;;4.20;80.90;;;2.67;78.28;95002.50;4924195;29;20498;-72
2021/03/14 04:25:42;;;;;;;0.30;0.20;;;4.10;81.40;;;2.58;77.08;95012.13;4909178;29;20106;-73
2021/03/14 04:28:08;;;;;;;0.20;0.20;;;3.90;82.50;;;2.47;77.30;95023.63;4913837;29;20038;-73
2021/03/14 04:30:33;;;;;;;1.02;0.25;;;3.70;83.00;;;2.38;77.90;95035.03;4937858;29;20044;-72
2021/03/14 04:33:00;;;;;;;0.73;0.20;;;3.70;82.80;;;2.28;78.00;95039.59;4915013;29;20071;-73
2021/03/14 04:35:25;;;;;;;0.20;0.13;;;3.60;82.90;;;2.21;78.03;95043.78;4914131;29;20134;-72
2021/03/14 04:37:51;;;;;;;0.30;0.20;;;3.60;83.10;;;2.15;78.10;95060.00;4941743;28;20186;-73
2021/03/14 04:40:17;;;;;;;0.20;0.20;;;3.50;83.40;;;2.06;78.54;95055.81;4928363;29;20118;-72
2021/03/14 04:42:45;;;;;;;0.35;0.28;;;3.40;83.90;;;2.03;79.23;95058.69;4896988;29;20107;-73
2021/03/14 04:45:11;;;;;;;0.22;0.20;;;3.40;84.00;;;1.99;78.32;95062.59;4920726;29;20028;-73
2021/03/14 04:47:40;;;;;;;0.30;0.20;;;3.50;83.80;;;1.97;78.89;95060.16;4915257;29;20493;-73
2021/03/14 04:50:07;;;;;;;0.57;0.20;;;3.50;83.00;;;1.96;78.40;95062.94;4921255;28;20109;-72
2021/03/14 04:52:33;;;;;;;0.70;0.30;;;3.50;83.50;;;1.91;78.71;95062.59;4907536;29;20027;-73
2021/03/14 04:54:58;;;;;;;0.20;0.20;;;3.40;84.10;;;1.89;78.65;95077.50;4913523;29;20114;-73
2021/03/14 04:57:24;;;;;;;0.15;0.15;;;3.40;84.30;;;1.84;78.67;95078.81;4922053;28;20095;-73
2021/03/14 04:59:50;;;;;;;0.73;0.30;;;3.30;84.20;;;1.84;78.94;95086.59;4931764;28;20169;-73
2021/03/14 05:02:15;;;;;;;1.58;0.35;;;3.40;84.20;;;1.83;78.87;95090.16;4907889;29;20443;-73
2021/03/14 05:04:42;;;;;;;0.20;0.20;;;3.40;83.90;;;1.79;79.34;95086.22;4933016;29;20053;-73
2021/03/14 05:07:11;;;;;;;0.20;0.20;;;3.30;83.80;;;1.78;79.69;95094.97;4917289;29;20107;-73
2021/03/14 05:09:38;;;;;;;0.30;0.20;;;3.30;83.50;;;1.76;79.50;95107.28;4935852;29;20146;-73
2021/03/14 05:12:04;;;;;;;0.22;0.20;;;3.30;83.30;;;1.74;79.20;95098.88;4933130;29;20035;-72
2021/03/14 05:14:30;;;;;;;0.38;0.30;;;3.30;83.40;;;1.71;79.27;95098.38;4914145;29;20032;-72
2021/03/14 05:16:56;;;;;;;0.28;0.20;;;3.30;83.30;;;1.67;79.17;95113.44;4917072;29;20110;-73
2021/03/14 05:19:22;;;;;;;0.30;0.20;;;3.20;83.40;;;1.68;78.89;95104.69;4908579;29;20079;-73
2021/03/14 05:21:48;;;;;;;0.95;0.20;;;3.30;83.20;;;1.66;79.48;95117.00;4898203;28;20036;-73
2021/03/14 05:24:14;;;;;;;0.28;0.13;;;3.20;83.30;;;1.66;79.37;95122.19;4916875;29;20039;-73
2021/03/14 05:26:41;;;;;;;0.20;0.20;;;3.20;83.10;;;1.66;79.48;95126.56;4923204;29;20881;-73
2021/03/14 05:29:10;;;;;;;0.20;0.20;;;3.20;83.20;;;1.67;79.31;95133.38;4929347;29;20039;-73
2021/03/14 05:31:36;;;;;;;0.20;0.20;;;3.30;83.30;;;1.66;78.74;95135.16;4930852;29;20047;-73
2021/03/14 05:34:08;;;;;;;0.20;0.20;;;3.20;83.20;;;1.64;80.33;95139.69;4945000;28;20571;-72
2021/03/14 05:36:34;;;;;;;0.25;0.25;;;3.20;83.60;;;1.61;79.02;95152.97;4916521;29;20057;-73
2021/03/14 05:39:03;;;;;;;1.10;0.20;;;3.10;83.50;;;1.59;79.81;95152.31;4949431;28;20039;-73
2021/03/14 05:41:29;;;;;;;0.35;0.20;;;3.10;83.90;;;1.61;80.11;95160.75;4917509;29;20043;-73
2021/03/14 05:43:55;;;;;;;0.20;0.20;;;3.20;83.80;;;1.61;79.35;95160.75;4911318;29;20056;-73
2021/03/14 05:46:22;;;;;;;0.85;0.30;;;3.20;84.00;;;1.62;79.50;95162.34;4913085;29;20102;-73
2021/03/14 05:48:47;;;;;;;0.20;0.20;;;3.20;83.90;;;1.63;79.58;95178.72;4932513;29;20542;-72
2021/03/14 05:51:20;;;;;;;0.50;0.30;;;3.30;83.80;;;1.63;80.27;95189.09;4929586;29;20051;-73
2021/03/14 05:53:46;;;;;;;0.90;0.40;;;3.20;84.10;;;1.61;79.92;95186.66;4938494;28;20218;-74
2021/03/14 05:56:12;;;;;;;0.52;0.50;;;3.20;83.90;;;1.61;79.64;95196.22;4916308;29;20043;-70
2021/03/14 05:58:38;;;;;;;0.82;0.45;;;3.20;83.90;;;1.62;79.58;95201.25;4929035;29;20063;-72
2021/03/14 06:01:09;;;;;;;0.70;0.43;;;3.20;83.70;;;1.65;80.19;95205.28;4914194;29;20063;-67
2021/03/14 06:03:36;;;;;;;2.22;0.40;;;3.30;83.70;;;1.62;79.84;95203.81;4926896;29;20043;-68
2021/03/14 06:06:05;;;;;;;0.35;0.30;;;3.20;83.90;;;1.63;79.81;95212.41;4942038;28;20388;-67
2021/03/14 06:08:31;;;;;;;0.40;0.30;;;3.20;83.50;;;1.62;79.66;95221.16;4920095;29;20066;-68
2021/03/14 06:11:01;;;;;;;0.35;0.30;;;3.20;83.90;;;1.63;80.17;95223.59;4915376;29;20047;-67
2021/03/14 06:13:27;;;;;;;0.50;0.35;;;3.30;83.50;;;1.61;79.69;95228.13;4931528;29;20126;-66
2021/03/14 06:15:52;;;;;;;0.30;0.30;;;3.20;83.70;;;1.61;79.95;95228.13;4909861;29;20126;-69
2021/03/14 06:18:18;;;;;;;0.22;0.22;;;3.30;83.50;;;1.66;80.16;95230.25;4905753;28;20075;-68
2021/03/14 06:20:44;;;;;;;0.50;0.20;;;3.30;83.40;;;1.65;79.73;95226.03;4934442;29;20046;-73
2021/03/14 06:23:14;;;;;;;1.55;0.30;;;3.30;83.50;;;1.66;80.53;95232.84;4933752;28;20058;-73
2021/03/14 06:25:42;;;;;;;0.63;0.40;;;3.30;83.40;;;1.65;80.05;95234.63;4916755;29;20425;-71
2021/03/14 06:28:08;;;;;;;0.55;0.30;;;3.30;82.90;;;1.67;79.78;95237.88;4907776;29;20062;-73
2021/03/14 06:30:34;;;;;;;0.55;0.35;;;3.40;83.00;;;1.68;79.99;95234.31;4925585;29;20071;-73
2021/03/14 06:33:07;;;;;;;1.05;0.40;;;3.40;82.80;;;1.71;81.14;95236.56;4912943;29;20047;-73
2021/03/14 06:35:47;;;;;;;0.80;0.45;;;3.50;82.50;;;1.75;80.74;95245.66;4913623;29;20043;-73
2021/03/14 06:38:30;;;;;;;0.40;0.30;;;3.60;82.10;;;1.86;80.98;95249.78;4928358;29;20054;-73
2021/03/14 06:41:02;;;;;;;1.02;0.30;;;3.90;81.00;;;1.97;79.56;95248.66;4913656;29;20397;-73
2021/03/14 06:43:39;;;;;;;0.75;0.30;;;3.90;80.90;;;2.05;79.63;95261.69;4957633;28;20028;-73
2021/03/14 06:46:26;;;;;;;0.93;0.28;;;3.90;80.40;;;2.14;79.75;95261.53;4928086;29;20059;-73
2021/03/14 06:49:09;;;;;;;0.20;0.20;;;4.20;79.70;;;2.20;79.67;95270.47;4915688;29;20027;-74
2021/03/14 06:51:38;;;;;;;0.52;0.30;;;4.20;79.20;;;2.28;78.58;95261.91;4916296;28;20411;-74
2021/03/14 06:54:27;;;;;;;0.32;0.20;;;4.20;78.80;;;2.38;79.59;95265.16;4938404;28;20032;-74
2021/03/14 06:57:12;;;;;;;0.80;0.40;;;4.40;78.70;;;2.51;79.16;95277.69;4916454;29;20044;-74
2021/03/14 06:59:46;;;;;;;0.40;0.25;;;4.50;78.30;;;2.69;78.46;95275.75;4916480;29;20059;-74
2021/03/14 07:02:16;;;;;;;0.95;0.25;;;4.90;77.70;;;2.85;78.13;95270.59;4919712;29;20679;-74
2021/03/14 07:04:51;;;;;;;2.33;0.47;;;5.00;76.80;;;2.99;78.05;95272.53;4928216;29;20658;-73
2021/03/14 07:07:30;;;;;;;0.35;0.20;;;5.10;76.60;;;3.13;78.18;95278.03;4935244;28;20031;-74
2021/03/14 07:10:15;;;;;;;0.95;0.30;;;5.30;76.60;;;3.26;78.00;95283.56;4909525;28;20174;-73
2021/03/14 07:12:43;;;;;;;0.52;0.30;;;5.20;77.10;;;3.32;77.46;95275.13;4933621;29;20051;-73
2021/03/14 07:15:35;;;;;;;0.65;0.30;;;5.10;77.00;;;3.33;77.43;95263.75;4911587;29;20496;-72
2021/03/14 07:18:01;;;;;;;1.38;0.50;;;5.10;77.40;;;3.35;77.48;95272.19;4897703;29;20043;-71
2021/03/14 07:20:29;;;;;;;0.60;0.30;;;5.10;77.60;;;3.36;77.32;95276.41;4928079;29;20098;-72
2021/03/14 07:23:09;;;;;;;0.40;0.30;;;5.10;76.50;;;3.39;77.10;95273.47;4883836;29;20476;-71
2021/03/14 07:25:40;;;;;;;0.80;0.30;;;5.20;76.70;;;3.43;76.91;95276.56;4924247;29;20467;-68
2021/03/14 07:28:06;;;;;;;1.13;0.60;;;5.10;77.20;;;3.45;76.89;95272.84;4899856;29;20428;-67
2021/03/14 07:30:32;;;;;;;3.58;2.20;;;5.10;76.60;;;3.48;76.70;95282.91;4902816;29;20043;-68
2021/03/14 07:32:57;;;;;;;0.68;0.57;;;5.20;77.60;;;3.48;76.90;95277.69;4954070;28;20034;-67
2021/03/14 07:35:23;;;;;;;0.60;0.20;;;5.10;77.60;;;3.45;76.53;95283.22;4934611;28;20490;-67
2021/03/14 07:37:52;;;;;;;1.30;0.30;;;5.00;77.60;;;3.52;76.56;95288.56;4936136;29;20558;-67
2021/03/14 07:40:20;;;;;;;2.95;1.20;;;5.30;76.20;;;3.59;76.24;95292.94;4932965;29;20220;-67
2021/03/14 07:42:46;;;;;;;0.75;0.40;;;5.40;76.10;;;3.67;76.45;95302.53;4933649;29;20491;-67
2021/03/14 07:45:16;;;;;;;1.02;0.40;;;5.50;75.50;;;3.67;75.84;95308.53;4927018;29;20042;-69
2021/03/14 07:47:42;;;;;;;1.63;0.20;;;5.10;76.50;;;3.66;75.76;95316.50;4930166;29;20118;-67
2021/03/14 07:50:13;;;;;;;0.85;0.30;;;5.10;76.80;;;3.63;76.00;95316.84;4947670;29;20063;-74
2021/03/14 07:52:40;;;;;;;0.73;0.30;;;5.10;77.10;;;3.58;75.93;95327.72;4932594;29;20513;-74
2021/03/14 07:55:26;;;;;;;0.43;0.30;;;5.00;77.10;;;3.45;75.48;95335.22;4914031;29;20059;-74
2021/03/14 07:57:53;;;;;;;1.33;0.50;;;4.60;77.80;;;3.35;75.51;95334.56;4933010;29;20050;-74
2021/03/14 08:00:27;;;;;;;0.50;0.30;;;4.70;77.90;;;3.35;75.71;95355.34;4931196;29;20549;-74
2021/03/14 08:03:06;;;;;;;1.77;0.25;;;5.00;77.60;;;3.38;75.82;95347.22;4930069;29;20119;-74
2021/03/14 08:05:44;;;;;;;0.75;0.40;;;5.00;76.80;;;3.44;76.04;95358.78;4929711;29;20464;-75
2021/03/14 08:08:16;;;;;;;1.33;0.68;;;5.40;75.60;;;3.54;74.92;95362.81;4947605;28;20035;-74
2021/03/14 08:10:45;;;;;;;1.65;0.98;;;5.40;74.80;;;3.63;75.03;95372.25;4934455;29;20419;-74
2021/03/14 08:13:36;;;;;;;1.33;0.75;;;5.50;74.90;;;3.76;75.36;95383.94;4928181;28;20031;-72
2021/03/14 08:16:06;;;;;;;1.73;0.40;;;5.80;74.60;;;3.89;74.57;95389.47;4942593;28;20034;-67
2021/03/14 08:18:49;;;;;;;1.13;0.50;;;6.10;72.80;;;4.06;73.61;95385.81;4935335;28;20043;-67
2021/03/14 08:21:20;;;;;;;6.47;3.17;;;6.40;70.50;;;4.29;73.65;95389.34;4941912;28;20125;-70
2021/03/14 08:23:51;;;;;;;3.35;2.10;;;6.70;70.50;;;4.42;74.14;95390.63;4962428;28;20082;-69
2021/03/14 08:26:36;;;;;;;1.53;0.70;;;6.50;70.20;;;4.47;72.67;95399.53;4931469;29;20147;-71
2021/03/14 08:29:06;;;;;;;0.30;0.28;;;6.30;70.90;;;4.43;73.19;95403.47;4948828;28;20035;-71
2021/03/14 08:31:51;;;;;;;3.38;1.75;;;6.00;71.60;;;4.38;72.09;95410.16;4944649;28;20027;-70
2021/03/14 08:34:26;;;;;;;6.93;3.03;;;6.00;71.60;;;4.35;72.57;95410.50;4923054;29;20459;-69
2021/03/14 08:36:53;;;;;;;2.03;0.60;;;6.00;72.30;;;4.39;72.46;95417.81;4949928;28;20594;-71
2021/03/14 08:39:29;;;;;;;2.05;0.50;;;6.30;71.30;;;4.41;71.55;95421.06;4917795;28;20046;-71
2021/03/14 08:42:00;;;;;;;1.50;0.50;;;6.30;70.10;;;4.45;71.61;95418.94;4936480;28;20387;-70
2021/03/14 08:44:39;;;;;;;2.28;0.60;;;6.40;69.10;;;4.54;71.65;95416.16;4921863;29;20058;-70
2021/03/14 08:47:12;;;;;;;1.15;0.60;;;6.60;69.30;;;4.59;71.91;95413.03;4898160;29;20126;-67
2021/03/14 08:49:45;;;;;;;6.13;1.50;;;6.40;69.20;;;4.61;71.68;95418.88;4959787;28;20045;-67
2021/03/14 08:52:12;;;;;;;1.38;0.70;;;6.30;70.30;;;4.57;71.95;95421.00;4935098;29;20036;-71
2021/03/14 08:54:43;;;;;;;2.92;0.90;;;6.20;69.10;;;4.63;70.80;95418.72;4913392;29;20043;-71
2021/03/14 08:57:12;;;;;;;;;;;6.50;69.00;;;4.60;70.55;95420.66;4924774;29;20066;-69
2021/03/14 08:59:48;;;;;;;3.05;1.33;;;6.40;69.70;;;4.53;71.22;95418.91;4936649;28;19918;-67
2021/03/14 09:02:24;;;;;;;4.32;2.55;;;6.00;71.10;;;4.46;71.28;95428.34;4944197;29;20527;-68
2021/03/14 09:04:50;;;;;;;11.57;5.60;;;6.00;71.60;;;4.33;71.42;95423.69;4908590;29;20109;-68
2021/03/14 09:07:16;;;;;;;5.53;2.35;;;5.80;71.60;;;4.17;71.21;95426.31;4913379;29;20784;-67
2021/03/14 09:09:42;;;;;;;6.43;2.55;;;5.50;71.80;;;4.11;71.09;95440.00;4915922;28;20043;-68
2021/03/14 09:12:13;;;;;;;1.45;0.90;;;5.70;71.80;;;4.06;71.36;95437.88;4928407;29;20914;-67
2021/03/14 09:14:46;;;;;;;2.80;0.85;;;5.80;71.70;;;4.08;71.54;95441.16;4931125;28;20030;-67
2021/03/14 09:17:13;;;;;;;1.80;0.80;;;5.80;71.40;;;4.10;71.34;95439.19;4901104;29;20403;-67
2021/03/14 09:19:45;;;;;;;1.27;0.73;;;5.80;70.10;;;4.11;71.03;95435.63;4915533;29;20063;-67
2021/03/14 09:22:23;;;;;;;;;;;5.80;70.40;;;4.06;70.67;95437.88;4904873;29;20110;-68
2021/03/14 09:24:53;;;;;;;2.30;1.00;;;5.60;70.50;;;3.97;70.71;95436.28;4935223;29;19918;-71
2021/03/14 09:27:33;;;;;;;1.20;0.57;;;5.40;70.50;;;3.86;70.85;95442.63;4923613;29;20046;-68
2021/03/14 09:29:59;;;;;;;2.05;1.00;;;5.30;71.90;;;3.83;71.55;95442.13;4928339;29;20057;-69
2021/03/14 09:32:36;;;;;;;1.65;0.68;;;5.30;71.60;;;3.76;71.14;95447.19;4935633;28;20050;-69
2021/03/14 09:35:16;;;;;;;2.78;0.50;;;5.30;71.90;;;3.84;71.54;95451.56;4926271;28;20039;-67
2021/03/14 09:37:42;;;;;;;1.92;0.77;;;5.60;71.50;;;3.94;71.24;95454.81;4914504;29;20043;-70
2021/03/14 09:40:38;;;;;;;1.90;0.60;;;5.90;70.90;;;4.10;70.89;95448.78;4914090;28;20066;-68
2021/03/14 09:43:22;;;;;;;1.83;0.43;;;6.10;68.70;;;4.37;68.77;95445.00;4933975;29;20514;-68
2021/03/14 09:45:50;;;;;;;3.25;1.30;;;6.60;65.40;;;4.52;69.78;95440.69;4937278;28;20031;-68
2021/03/14 09:48:24;;;;;;;2.72;0.85;;;6.60;64.80;;;4.65;67.75;95448.00;4942949;28;20268;-68
2021/03/14 09:51:04;;;;;;;1.55;0.50;;;6.60;64.20;;;4.78;67.74;95449.09;4906017;29;20061;-68
2021/03/14 09:53:35;;;;;;;3.47;0.60;;;6.90;64.80;;;4.93;67.28;95446.56;4943392;28;20535;-68
2021/03/14 09:56:09;;;;;;;1.10;0.70;;;7.10;62.00;;;5.04;64.67;95438.41;4921233;29;20091;-68
2021/03/14 09:58:35;;;;;;;3.33;0.90;;;6.90;60.20;;;5.10;67.07;95449.94;4941226;28;20067;-69
2021/03/14 10:01:01;;;;;;;2.10;0.60;;;6.90;59.80;;;5.11;66.92;95449.75;4923743;28;20064;-68
2021/03/14 10:03:28;;;;;;;2.92;0.50;;;6.70;60.70;;;5.09;66.43;95445.69;4929915;29;20035;-68
2021/03/14 10:05:58;;;;;;;3.08;0.52;;;6.70;62.20;;;5.06;65.32;95451.25;4916871;28;20049;-69
2021/03/14 10:08:26;;;;;;;2.40;0.67;;;6.60;61.60;;;5.05;65.87;95449.63;4910870;29;20040;-68
2021/03/14 10:11:04;;;;;;;2.78;0.65;;;6.60;61.40;;;5.00;64.09;95446.72;4908283;29;20057;-68
2021/03/14 10:13:31;;;;;;;3.47;0.77;;;6.40;60.70;;;4.95;64.50;95449.81;4936189;29;20511;-69
2021/03/14 10:15:57;;;;;;;1.35;0.50;;;6.30;60.10;;;5.09;64.78;95451.72;4916303;29;20032;-69
2021/03/14 10:18:25;;;;;;;1.73;0.52;;;7.40;57.90;;;5.51;64.37;95440.88;4898126;29;20043;-68
2021/03/14 10:20:52;;;;;;;2.50;0.77;;;8.70;54.50;;;6.15;63.66;95437.94;4924693;29;20050;-68
2021/03/14 10:23:24;;;;;;;2.08;0.50;;;9.70;51.10;;;6.64;59.95;95438.25;4911209;29;20028;-69
2021/03/14 10:25:50;;;;;;;2.08;0.60;;;9.60;49.40;;;6.98;61.89;95439.47;4906002;28;20046;-68
2021/03/14 10:28:20;;;;;;;3.42;0.65;;;9.80;48.10;;;7.11;59.50;95449.31;4914874;29;20166;-68
2021/03/14 10:30:47;;;;;;;3.55;1.13;;;9.20;49.00;;;7.13;59.41;95445.50;4928739;28;20195;-68
2021/03/14 10:33:28;;;;;;;5.20;1.90;;;8.90;48.90;;;7.49;57.25;95457.78;4916417;28;20032;-69
2021/03/14 10:36:09;;;;;;;3.13;1.27;;;10.60;46.60;;;7.86;55.83;95459.34;4926049;28;20098;-69
2021/03/14 10:38:43;;;;;;;2.80;1.42;;;10.60;45.40;;;8.04;55.22;95456.28;4912334;29;20106;-69
2021/03/14 10:41:11;;;;;;;6.03;0.82;;;11.20;43.40;;;8.52;56.44;95449.41;4912322;29;20039;-71